createdAt,value
2022-12-14T00:01:29.098Z,100634.00
2022-12-14T00:03:56.329Z,100627.31
2022-12-14T00:06:26.664Z,100634.22
2022-12-14T00:08:56.522Z,100624.03
2022-12-14T00:11:23.520Z,100632.06
2022-12-14T00:13:57.338Z,100624.72
2022-12-14T00:16:25.733Z,100620.19
2022-12-14T00:18:53.742Z,100614.56
2022-12-14T00:21:24.153Z,100608.66
2022-12-14T00:23:51.743Z,100612.66
2022-12-14T00:26:24.688Z,100608.03
2022-12-14T00:28:53.202Z,100606.81
2022-12-14T00:31:20.733Z,100600.50
2022-12-14T00:33:47.140Z,100602.13
2022-12-14T00:36:16.794Z,100600.91
2022-12-14T00:38:43.249Z,100603.41
2022-12-14T00:41:10.879Z,100595.44
2022-12-14T00:43:38.014Z,100602.19
2022-12-14T00:46:04.692Z,100594.78
2022-12-14T00:48:31.927Z,100596.34
2022-12-14T00:50:58.662Z,100598.44
2022-12-14T00:53:25.809Z,100604.75
2022-12-14T00:55:52.610Z,100599.00
2022-12-14T00:58:21.690Z,100601.94
2022-12-14T01:00:57.705Z,100604.88
2022-12-14T01:03:24.299Z,100602.06
2022-12-14T01:05:51.013Z,100591.88
2022-12-14T01:08:17.415Z,100591.88
2022-12-14T01:10:43.834Z,100596.06
2022-12-14T01:13:14.117Z,100590.50
2022-12-14T01:15:40.609Z,100583.75
2022-12-14T01:18:07.029Z,100584.97
2022-12-14T01:20:33.438Z,100589.59
2022-12-14T01:22:59.830Z,100583.28
2022-12-14T01:25:26.444Z,100579.34
2022-12-14T01:27:52.833Z,100578.78
2022-12-14T01:30:19.559Z,100581.56
2022-12-14T01:32:46.746Z,100579.06
2022-12-14T01:35:13.228Z,100575.66
2022-12-14T01:37:39.609Z,100582.81
2022-12-14T01:40:06.466Z,100578.56
2022-12-14T01:42:35.896Z,100578.22
2022-12-14T01:45:03.198Z,100576.44
2022-12-14T01:47:43.216Z,100572.00
2022-12-14T01:50:53.998Z,100574.72
2022-12-14T01:53:24.517Z,100580.75
2022-12-14T01:55:54.365Z,100575.19
2022-12-14T01:58:26.066Z,100573.09
2022-12-14T02:00:54.996Z,100572.25
2022-12-14T02:03:37.955Z,100563.81
2022-12-14T02:06:09.870Z,100560.13
2022-12-14T02:08:41.815Z,100561.84
2022-12-14T02:11:08.217Z,100561.06
2022-12-14T02:13:38.961Z,100566.28
2022-12-14T02:16:05.730Z,100570.69
2022-12-14T02:18:33.002Z,100564.19
2022-12-14T02:21:17.985Z,100563.28
2022-12-14T02:24:30.236Z,100558.28
2022-12-14T02:27:30.632Z,100561.03
2022-12-14T02:30:06.624Z,100556.47
2022-12-14T02:32:48.087Z,100565.50
2022-12-14T02:35:43.755Z,100559.22
2022-12-14T02:38:22.235Z,100557.81
2022-12-14T02:41:06.659Z,100557.16
2022-12-14T02:43:50.828Z,100553.00
2022-12-14T02:46:36.291Z,100540.66
2022-12-14T02:49:34.643Z,100540.84
2022-12-14T02:52:10.362Z,100549.41
2022-12-14T02:55:02.980Z,100551.88
2022-12-14T02:57:34.472Z,100551.31
2022-12-14T03:00:04.043Z,100548.31
2022-12-14T03:02:33.475Z,100550.47
2022-12-14T03:04:59.952Z,100540.72
2022-12-14T03:07:40.299Z,100531.38
2022-12-14T03:10:21.218Z,100538.81
2022-12-14T03:12:53.845Z,100541.44
2022-12-14T03:15:21.773Z,100530.13
2022-12-14T03:17:52.785Z,100534.16
2022-12-14T03:20:25.610Z,100532.41
2022-12-14T03:23:00.717Z,100522.72
2022-12-14T03:25:34.588Z,100528.84
2022-12-14T03:28:12.327Z,100516.59
2022-12-14T03:30:59.966Z,100515.38
2022-12-14T03:33:29.520Z,100505.13
2022-12-14T03:36:08.986Z,100498.63
2022-12-14T03:38:44.204Z,100501.56
2022-12-14T03:41:28.664Z,100505.13
2022-12-14T03:44:15.905Z,100508.53
2022-12-14T03:46:57.742Z,100505.41
2022-12-14T03:49:50.895Z,100498.91
2022-12-14T03:52:23.107Z,100498.03
2022-12-14T03:55:05.524Z,100499.69
2022-12-14T03:57:55.450Z,100498.88
2022-12-14T04:00:24.736Z,100486.34
2022-12-14T04:03:31.112Z,100481.50
2022-12-14T04:06:07.371Z,100485.91
2022-12-14T04:08:57.289Z,100475.00
2022-12-14T04:11:46.548Z,100485.34
2022-12-14T04:14:39.958Z,100475.47
2022-12-14T04:17:35.817Z,100477.75
2022-12-14T04:20:10.706Z,100478.97
2022-12-14T04:22:47.113Z,100477.25
2022-12-14T04:25:38.007Z,100472.56
2022-12-14T04:28:31.110Z,100474.41
2022-12-14T04:31:03.074Z,100468.78
2022-12-14T04:33:47.353Z,100472.34
2022-12-14T04:36:39.990Z,100465.97
2022-12-14T04:39:11.571Z,100463.13
2022-12-14T04:41:42.778Z,100457.09
2022-12-14T04:44:22.495Z,100456.34
2022-12-14T04:46:50.730Z,100449.22
2022-12-14T04:49:23.614Z,100447.81
2022-12-14T04:52:05.227Z,100443.41
2022-12-14T04:54:37.481Z,100440.50
2022-12-14T04:57:19.323Z,100442.47
2022-12-14T04:59:47.311Z,100444.44
2022-12-14T05:02:34.115Z,100435.16
2022-12-14T05:05:07.915Z,100432.78
2022-12-14T05:07:49.214Z,100429.22
2022-12-14T05:10:51.966Z,100426.97
2022-12-14T05:13:26.271Z,100430.91
2022-12-14T05:15:55.821Z,100429.31
2022-12-14T05:18:23.034Z,100418.59
2022-12-14T05:20:50.088Z,100421.78
2022-12-14T05:23:17.202Z,100424.50
2022-12-14T05:25:43.663Z,100416.63
2022-12-14T05:28:11.219Z,100410.25
2022-12-14T05:30:37.756Z,100411.66
2022-12-14T05:33:04.552Z,100405.44
2022-12-14T05:35:31.045Z,100410.34
2022-12-14T05:37:57.445Z,100404.22
2022-12-14T05:40:23.832Z,100394.84
2022-12-14T05:42:55.447Z,100394.47
2022-12-14T05:45:22.329Z,100385.41
2022-12-14T05:47:48.782Z,100387.69
2022-12-14T05:50:15.182Z,100385.38
2022-12-14T05:52:41.573Z,100370.25
2022-12-14T05:55:08.433Z,100367.59
2022-12-14T05:57:34.817Z,100367.97
2022-12-14T06:00:01.198Z,100365.16
2022-12-14T06:02:30.821Z,100362.06
2022-12-14T06:04:57.298Z,100356.78
2022-12-14T06:07:27.689Z,100359.03
2022-12-14T06:09:54.733Z,100357.28
2022-12-14T06:12:21.180Z,100365.53
2022-12-14T06:14:47.618Z,100355.97
2022-12-14T06:17:14.021Z,100360.38
2022-12-14T06:19:40.405Z,100358.69
2022-12-14T06:22:06.825Z,100355.78
2022-12-14T06:24:33.211Z,100358.09
2022-12-14T06:26:59.602Z,100356.34
2022-12-14T06:29:26.197Z,100352.94
2022-12-14T06:31:52.652Z,100356.91
2022-12-14T06:34:22.204Z,100353.16
2022-12-14T06:36:51.317Z,100347.88
2022-12-14T06:39:17.698Z,100347.41
2022-12-14T06:41:51.774Z,100345.06
2022-12-14T06:44:27.457Z,100346.97
2022-12-14T06:46:54.124Z,100352.97
2022-12-14T06:49:20.569Z,100341.22
2022-12-14T06:51:47.004Z,100342.72
2022-12-14T06:54:15.044Z,100339.09
2022-12-14T06:56:42.845Z,100339.25
2022-12-14T06:59:09.679Z,100333.25
2022-12-14T07:01:37.415Z,100335.03
2022-12-14T07:04:04.908Z,100340.00
2022-12-14T07:06:39.802Z,100334.25
2022-12-14T07:09:10.898Z,100338.97
2022-12-14T07:11:37.301Z,100326.78
2022-12-14T07:14:06.134Z,100331.91
2022-12-14T07:16:34.234Z,100321.41
2022-12-14T07:19:00.929Z,100325.63
2022-12-14T07:21:27.447Z,100322.47
2022-12-14T07:23:53.929Z,100310.22
2022-12-14T07:26:26.453Z,100312.69
2022-12-14T07:28:53.761Z,100317.28
2022-12-14T07:31:26.724Z,100307.44
2022-12-14T07:33:58.677Z,100304.63
2022-12-14T07:36:30.289Z,100302.06
2022-12-14T07:38:56.993Z,100302.56
2022-12-14T07:41:26.326Z,100291.59
2022-12-14T07:43:54.761Z,100295.34
2022-12-14T07:46:24.105Z,100286.88
2022-12-14T07:48:55.309Z,100292.22
2022-12-14T07:51:30.084Z,100293.00
2022-12-14T07:53:56.816Z,100294.88
2022-12-14T07:56:25.397Z,100293.72
2022-12-14T07:58:56.930Z,100296.56
2022-12-14T08:01:33.330Z,100293.19
2022-12-14T08:04:05.202Z,100300.97
2022-12-14T08:06:32.291Z,100290.78
2022-12-14T08:08:59.002Z,100298.69
2022-12-14T08:11:25.696Z,100292.75
2022-12-14T08:13:56.691Z,100302.81
2022-12-14T08:16:23.787Z,100296.91
2022-12-14T08:18:52.496Z,100297.94
2022-12-14T08:21:21.500Z,100285.28
2022-12-14T08:23:48.885Z,100286.00
2022-12-14T08:26:15.881Z,100289.94
2022-12-14T08:28:42.270Z,100284.69
2022-12-14T08:31:20.342Z,100281.03
2022-12-14T08:33:47.609Z,100287.22
2022-12-14T08:36:25.457Z,100276.09
2022-12-14T08:38:57.034Z,100270.47
2022-12-14T08:41:24.564Z,100271.53
2022-12-14T08:43:56.699Z,100274.44
2022-12-14T08:46:24.191Z,100275.53
2022-12-14T08:48:52.448Z,100274.31
2022-12-14T08:51:19.707Z,100270.53
2022-12-14T08:53:52.002Z,100274.00
2022-12-14T08:56:21.566Z,100268.19
2022-12-14T08:58:51.161Z,100272.25
2022-12-14T09:01:29.996Z,100272.44
2022-12-14T09:04:05.949Z,100264.34
2022-12-14T09:06:37.479Z,100255.84
2022-12-14T09:09:13.601Z,100256.97
2022-12-14T09:11:42.545Z,100265.56
2022-12-14T09:14:08.942Z,100265.19
2022-12-14T09:16:41.406Z,100267.25
2022-12-14T09:19:07.837Z,100264.59
2022-12-14T09:21:34.741Z,100263.88
2022-12-14T09:24:01.606Z,100262.91
2022-12-14T09:26:28.159Z,100254.44
2022-12-14T09:28:56.512Z,100239.78
2022-12-14T09:31:24.734Z,100244.00
2022-12-14T09:33:51.603Z,100237.09
2022-12-14T09:36:23.957Z,100244.69
2022-12-14T09:38:52.422Z,100230.03
2022-12-14T09:41:36.996Z,100235.75
2022-12-14T09:44:31.241Z,100225.44
2022-12-14T09:47:21.002Z,100220.22
2022-12-14T09:49:53.099Z,100218.03
2022-12-14T09:52:48.831Z,100209.91
2022-12-14T09:55:31.851Z,100218.56
2022-12-14T09:58:03.517Z,100210.06
2022-12-14T10:00:37.593Z,100210.50
2022-12-14T10:03:19.264Z,100206.16
2022-12-14T10:06:19.092Z,100198.34
2022-12-14T10:08:54.936Z,100203.09
2022-12-14T10:11:40.504Z,100198.72
2022-12-14T10:14:29.859Z,100200.81
2022-12-14T10:17:09.458Z,100202.97
2022-12-14T10:19:51.462Z,100190.41
2022-12-14T10:22:38.419Z,100182.44
2022-12-14T10:25:13.962Z,100179.34
2022-12-14T10:30:37.883Z,100173.59
2022-12-14T10:33:16.841Z,100175.66
2022-12-14T10:35:50.932Z,100181.59
2022-12-14T10:38:26.351Z,100179.94
2022-12-14T10:41:31.430Z,100162.91
2022-12-14T10:44:23.182Z,100156.66
2022-12-14T10:47:11.760Z,100157.06
2022-12-14T10:50:03.027Z,100153.09
2022-12-14T10:52:36.998Z,100156.47
2022-12-14T10:55:12.177Z,100147.84
2022-12-14T10:57:38.623Z,100148.88
2022-12-14T11:00:31.310Z,100141.09
2022-12-14T11:02:58.221Z,100139.00
2022-12-14T11:05:51.036Z,100134.38
2022-12-14T11:08:41.032Z,100134.19
2022-12-14T11:11:24.743Z,100128.72
2022-12-14T11:13:54.378Z,100118.25
2022-12-14T11:16:37.131Z,100118.22
2022-12-14T11:19:06.011Z,100117.19
2022-12-14T11:21:35.823Z,100115.75
2022-12-14T11:24:22.245Z,100109.63
2022-12-14T11:26:58.977Z,100100.56
2022-12-14T11:29:34.688Z,100099.09
2022-12-14T11:32:01.700Z,100099.31
2022-12-14T11:34:37.674Z,100100.13
2022-12-14T11:37:12.947Z,100100.53
2022-12-14T11:39:42.404Z,100095.06
2022-12-14T11:42:17.405Z,100101.16
2022-12-14T11:44:45.945Z,100102.41
2022-12-14T11:47:30.793Z,100104.34
2022-12-14T11:49:57.841Z,100097.59
2022-12-14T11:52:42.513Z,100103.91
2022-12-14T11:55:26.486Z,100095.47
2022-12-14T11:57:59.342Z,100094.88
2022-12-14T12:00:30.771Z,100087.69
2022-12-14T12:03:01.828Z,100091.25
2022-12-14T12:05:32.625Z,100086.19
2022-12-14T12:08:02.105Z,100081.56
2022-12-14T12:10:49.678Z,100089.53
2022-12-14T12:13:35.171Z,100089.97
2022-12-14T12:16:05.898Z,100081.75
2022-12-14T12:18:45.813Z,100085.97
2022-12-14T12:21:18.482Z,100073.34
2022-12-14T12:23:58.620Z,100073.53
2022-12-14T12:26:32.332Z,100072.47
2022-12-14T12:29:36.458Z,100065.94
2022-12-14T12:32:23.966Z,100056.84
2022-12-14T12:35:11.279Z,100056.06
2022-12-14T12:37:56.990Z,100058.34
2022-12-14T12:40:32.012Z,100058.38
2022-12-14T12:43:12.830Z,100053.94
2022-12-14T12:45:46.532Z,100055.03
2022-12-14T12:48:28.186Z,100057.31
2022-12-14T12:51:00.820Z,100061.31
2022-12-14T12:53:33.481Z,100055.84
2022-12-14T12:56:14.630Z,100044.47
2022-12-14T12:58:46.351Z,100048.63
2022-12-14T13:01:24.190Z,100035.19
2022-12-14T13:03:55.277Z,100035.41
2022-12-14T13:06:35.852Z,100036.84
2022-12-14T13:09:17.395Z,100032.81
2022-12-14T13:11:45.694Z,100037.53
2022-12-14T13:14:39.813Z,100034.78
2022-12-14T13:17:14.897Z,100037.75
2022-12-14T13:19:50.568Z,100038.56
2022-12-14T13:22:24.862Z,100030.09
2022-12-14T13:24:58.851Z,100028.00
2022-12-14T13:27:42.042Z,100021.25
2022-12-14T13:30:43.075Z,100017.09
2022-12-14T13:33:33.298Z,100025.50
2022-12-14T13:36:28.059Z,100019.81
2022-12-14T13:39:18.253Z,100018.78
2022-12-14T13:41:56.351Z,100015.47
2022-12-14T13:45:01.295Z,100015.66
2022-12-14T13:48:03.586Z,100017.78
2022-12-14T13:50:36.603Z,100007.88
2022-12-14T13:53:27.631Z,100005.38
2022-12-14T13:56:00.007Z,100007.75
2022-12-14T13:58:44.474Z,100007.13
2022-12-14T14:01:35.123Z,100006.50
2022-12-14T14:04:10.411Z,100004.81
2022-12-14T14:06:50.549Z,99999.56
2022-12-14T14:09:26.325Z,100001.22
2022-12-14T14:11:57.143Z,99999.13
2022-12-14T14:14:33.466Z,99995.19
2022-12-14T14:17:08.568Z,100000.22
2022-12-14T14:19:39.508Z,99991.97
2022-12-14T14:22:25.832Z,99987.19
2022-12-14T14:25:00.920Z,99983.19
2022-12-14T14:27:37.126Z,99985.72
2022-12-14T14:30:26.387Z,99987.00
2022-12-14T14:32:54.175Z,99976.53
2022-12-14T14:35:37.733Z,99976.94
2022-12-14T14:38:23.330Z,99976.28
2022-12-14T14:43:49.624Z,99968.97
2022-12-14T14:46:22.273Z,99976.53
2022-12-14T14:48:54.537Z,99970.66
2022-12-14T14:51:28.951Z,99975.69
2022-12-14T14:54:56.096Z,99975.25
2022-12-14T14:57:35.055Z,99969.81
2022-12-14T15:00:05.006Z,99974.41
2022-12-14T15:02:39.202Z,99965.59
2022-12-14T15:05:33.200Z,99976.75
2022-12-14T15:07:55.094Z,99976.53
2022-12-14T15:10:29.741Z,99980.09
2022-12-14T15:13:03.196Z,99985.56
2022-12-14T15:15:37.211Z,99984.53
2022-12-14T15:18:30.460Z,99979.84
2022-12-14T15:21:07.838Z,99979.41
2022-12-14T15:23:45.337Z,99973.09
2022-12-14T15:26:26.413Z,99975.88
2022-12-14T15:28:58.168Z,99975.91
2022-12-14T15:31:33.775Z,99971.69
2022-12-14T15:34:01.831Z,99967.25
2022-12-14T15:36:32.124Z,99968.91
2022-12-14T15:38:58.899Z,99970.63
2022-12-14T15:41:28.780Z,99978.59
2022-12-14T15:44:00.321Z,99981.13
2022-12-14T15:46:40.229Z,99982.59
2022-12-14T15:49:10.614Z,99974.19
2022-12-14T15:51:43.372Z,99975.88
2022-12-14T15:54:20.718Z,99973.56
2022-12-14T15:56:51.025Z,99960.53
2022-12-14T15:59:32.430Z,99962.22
2022-12-14T16:02:29.065Z,99960.16
2022-12-14T16:05:01.375Z,99963.06
2022-12-14T16:07:39.206Z,99962.00
2022-12-14T16:10:22.717Z,99961.38
2022-12-14T16:12:52.493Z,99959.31
2022-12-14T16:15:22.307Z,99950.66
2022-12-14T16:17:53.653Z,99961.81
2022-12-14T16:20:30.261Z,99965.16
2022-12-14T16:23:01.439Z,99966.63
2022-12-14T16:25:30.107Z,99960.31
2022-12-14T16:27:56.832Z,99962.63
2022-12-14T16:30:33.319Z,99952.97
2022-12-14T16:33:05.948Z,99952.53
2022-12-14T16:35:35.262Z,99951.94
2022-12-14T16:38:16.218Z,99961.19
2022-12-14T16:40:48.536Z,99958.22
2022-12-14T16:43:30.782Z,99966.63
2022-12-14T16:46:00.430Z,99963.06
2022-12-14T16:48:28.739Z,99968.53
2022-12-14T16:51:32.976Z,99961.81
2022-12-14T16:54:23.959Z,99958.66
2022-12-14T16:56:58.176Z,99965.38
2022-12-14T16:59:55.078Z,99968.72
2022-12-14T17:02:30.448Z,99963.47
2022-12-14T17:04:59.935Z,99969.16
2022-12-14T17:07:29.617Z,99971.47
2022-12-14T17:09:56.515Z,99966.19
2022-12-14T17:12:24.933Z,99967.88
2022-12-14T17:14:52.222Z,99968.31
2022-12-14T17:17:26.790Z,99970.59
2022-12-14T17:19:55.906Z,99963.28
2022-12-14T17:22:26.364Z,99959.69
2022-12-14T17:24:53.032Z,99970.34
2022-12-14T17:27:26.656Z,99974.72
2022-12-14T17:29:57.240Z,99970.22
2022-12-14T17:32:27.679Z,99971.63
2022-12-14T17:34:54.101Z,99974.66
2022-12-14T17:37:23.757Z,99976.53
2022-12-14T17:39:50.867Z,99978.25
2022-12-14T17:42:20.434Z,99969.59
2022-12-14T17:45:05.036Z,99973.25
2022-12-14T17:47:31.535Z,99976.84
2022-12-14T17:49:57.992Z,99978.28
2022-12-14T17:52:28.930Z,99981.47
2022-12-14T17:54:55.248Z,99974.97
2022-12-14T17:57:23.565Z,99979.59
2022-12-14T18:00:10.270Z,99981.06
2022-12-14T18:02:37.732Z,99977.69
2022-12-14T18:05:04.577Z,99978.69
2022-12-14T18:07:30.966Z,99979.75
2022-12-14T18:09:57.646Z,99970.28
2022-12-14T18:12:25.761Z,99960.19
2022-12-14T18:14:52.410Z,99968.84
2022-12-14T18:17:18.942Z,99963.75
2022-12-14T18:19:45.354Z,99969.22
2022-12-14T18:22:14.389Z,99963.75
2022-12-14T18:24:40.857Z,99967.91
2022-12-14T18:27:07.377Z,99969.78
2022-12-14T18:29:33.810Z,99967.06
2022-12-14T18:32:00.310Z,99960.31
2022-12-14T18:34:26.806Z,99959.88
2022-12-14T18:36:53.206Z,99965.94
2022-12-14T18:39:19.814Z,99975.28
2022-12-14T18:41:46.200Z,99965.41
2022-12-14T18:44:12.607Z,99972.50
2022-12-14T18:46:39.541Z,99973.81
2022-12-14T18:49:06.691Z,99968.66
2022-12-14T18:51:36.180Z,99976.44
2022-12-14T18:54:03.269Z,99973.19
2022-12-14T18:56:29.708Z,99977.81
2022-12-14T18:58:56.290Z,99973.19
2022-12-14T19:01:24.677Z,99977.66
2022-12-14T19:03:51.734Z,99977.47
2022-12-14T19:09:09.965Z,99985.09
2022-12-14T19:11:41.971Z,99978.56
2022-12-14T19:14:08.872Z,99983.81
2022-12-14T19:16:35.366Z,99985.88
2022-12-14T19:19:01.858Z,99994.66
2022-12-14T19:21:31.801Z,99996.28
2022-12-14T19:23:59.743Z,99984.56
2022-12-14T19:26:28.086Z,99980.91
2022-12-14T19:28:54.478Z,99986.03
2022-12-14T19:31:20.942Z,99984.56
2022-12-14T19:33:47.402Z,99983.31
2022-12-14T19:36:13.795Z,99983.31
2022-12-14T19:38:40.227Z,99983.69
2022-12-14T19:41:10.722Z,99983.06
2022-12-14T19:43:37.416Z,99983.63
2022-12-14T19:46:08.905Z,99992.94
2022-12-14T19:48:35.387Z,99987.88
2022-12-14T19:51:10.641Z,99995.97
2022-12-14T19:53:37.761Z,99999.06
2022-12-14T19:56:04.616Z,99991.16
2022-12-14T19:58:31.022Z,99993.59
2022-12-14T20:00:58.370Z,99987.00
2022-12-14T20:03:24.907Z,99992.72
2022-12-14T20:05:55.813Z,99993.63
2022-12-14T20:08:23.427Z,99995.91
2022-12-14T20:10:52.632Z,99995.47
2022-12-14T20:13:19.792Z,100003.75
2022-12-14T20:15:50.715Z,99999.81
2022-12-14T20:18:17.293Z,100004.09
2022-12-14T20:20:43.936Z,100003.34
2022-12-14T20:23:17.262Z,100005.81
2022-12-14T20:25:43.682Z,100007.44
2022-12-14T20:28:14.315Z,100003.75
2022-12-14T20:30:45.480Z,100016.03
2022-12-14T20:33:12.646Z,100011.38
2022-12-14T20:35:39.139Z,100007.44
2022-12-14T20:38:05.533Z,100016.69
2022-12-14T20:40:38.007Z,100007.59
2022-12-14T20:43:05.151Z,100011.53
2022-12-14T20:45:31.557Z,100012.78
2022-12-14T20:47:57.946Z,100006.50
2022-12-14T20:50:24.354Z,100003.88
2022-12-14T20:52:50.734Z,100006.16
2022-12-14T20:55:17.263Z,100002.41
2022-12-14T20:57:43.658Z,100010.94
2022-12-14T21:00:10.535Z,100020.53
2022-12-14T21:02:37.085Z,100010.31
2022-12-14T21:05:03.985Z,100016.22
2022-12-14T21:07:31.704Z,100002.44
2022-12-14T21:09:58.449Z,100006.09
2022-12-14T21:12:25.709Z,100013.97
2022-12-14T21:14:54.260Z,100011.38
2022-12-14T21:17:23.213Z,100015.69
2022-12-14T21:19:50.354Z,100017.25
2022-12-14T21:22:26.025Z,100019.63
2022-12-14T21:25:08.288Z,100022.16
2022-12-14T21:27:38.240Z,100027.50
2022-12-14T21:30:07.202Z,100026.47
2022-12-14T21:32:35.547Z,100031.34
2022-12-14T21:35:01.996Z,100023.34
2022-12-14T21:37:28.378Z,100027.22
2022-12-14T21:39:55.741Z,100027.16
2022-12-14T21:42:23.633Z,100031.81
2022-12-14T21:44:51.939Z,100014.78
2022-12-14T21:47:24.670Z,100020.47
2022-12-14T21:49:51.299Z,100018.97
2022-12-14T21:52:20.393Z,100027.88
2022-12-14T21:54:46.779Z,100029.47
2022-12-14T21:57:37.265Z,100034.44
2022-12-14T22:00:05.500Z,100035.06
2022-12-14T22:02:39.608Z,100030.69
2022-12-14T22:05:06.631Z,100037.78
2022-12-14T22:07:34.202Z,100038.00
2022-12-14T22:10:00.692Z,100044.25
2022-12-14T22:12:27.328Z,100043.44
2022-12-14T22:14:53.739Z,100030.97
2022-12-14T22:17:20.154Z,100041.94
2022-12-14T22:19:46.617Z,100036.88
2022-12-14T22:22:15.290Z,100036.38
2022-12-14T22:24:41.951Z,100042.84
2022-12-14T22:27:10.003Z,100042.69
2022-12-14T22:29:36.397Z,100051.38
2022-12-14T22:32:02.917Z,100046.78
2022-12-14T22:34:29.411Z,100051.47
2022-12-14T22:36:56.013Z,100053.34
2022-12-14T22:39:22.636Z,100046.53
2022-12-14T22:41:49.488Z,100053.03
2022-12-14T22:44:15.883Z,100052.84
2022-12-14T22:46:42.344Z,100056.34
2022-12-14T22:49:14.265Z,100055.81
2022-12-14T22:51:41.094Z,100054.31
2022-12-14T22:54:07.489Z,100045.25
2022-12-14T22:56:48.131Z,100040.13
2022-12-14T22:59:23.338Z,100035.22
2022-12-14T23:01:50.550Z,100045.22
2022-12-14T23:04:17.461Z,100046.66
2022-12-14T23:06:44.867Z,100048.72
2022-12-14T23:09:30.603Z,100061.75
2022-12-14T23:12:21.262Z,100061.56
2022-12-14T23:15:06.770Z,100061.84
2022-12-14T23:17:51.592Z,100062.41
2022-12-14T23:20:36.862Z,100067.63
2022-12-14T23:23:26.069Z,100073.81
2022-12-14T23:26:12.016Z,100070.31
2022-12-14T23:28:57.591Z,100074.63
2022-12-14T23:31:42.970Z,100068.00
2022-12-14T23:34:28.460Z,100061.97
2022-12-14T23:37:18.216Z,100067.22
2022-12-14T23:40:05.632Z,100072.19
2022-12-14T23:42:50.566Z,100083.72
2022-12-14T23:45:35.568Z,100073.56
2022-12-14T23:48:20.761Z,100080.25
2022-12-14T23:51:06.062Z,100081.44
2022-12-14T23:53:51.211Z,100077.06
2022-12-14T23:56:36.291Z,100085.03
2022-12-14T23:59:24.864Z,100082.13
